Time;durP1;ratioP1;P1;durP2;ratioP2;P2;SDS_P1;SDS_P2;PMS_P1;PMS_P2;Temp;Humidity;BMP_temperature;BMP_pressure;BME280_temperature;BME280_humidity;BME280_pressure;Samples;Min_cycle;Max_cycle;Signal;HPM_P1;HPM_P2
2022/08/18 00:01:04;;;;;;;;;;;;;;;-142.75;100.00;76229.75;5052769;28;19913;-68
2022/08/18 00:03:29;;;;;;;;;;;;;;;-142.75;100.00;76241.56;5052693;28;20422;-67
2022/08/18 00:05:55;;;;;;;;;;;;;;;-142.75;100.00;76239.59;5052513;28;20329;-67
2022/08/18 00:08:20;;;;;;;;;;;;;;;-142.75;100.00;76235.66;5052320;28;19912;-68
2022/08/18 00:10:45;;;;;;;;;;;;;;;-142.75;100.00;76243.53;5051652;28;19912;-68
2022/08/18 00:13:10;;;;;;;;;;;;;;;-142.75;100.00;76251.41;5052471;28;19966;-68
2022/08/18 00:15:35;;;;;;;;;;;;;;;-142.75;100.00;76263.22;5052491;28;19939;-68
2022/08/18 00:18:00;;;;;;;;;;;;;;;-142.75;100.00;76271.09;5081179;22;19925;-66
2022/08/18 00:20:26;;;;;;;;;;;;;;;-142.75;100.00;76269.13;5092421;28;19924;-65
2022/08/18 00:22:51;;;;;;;;;;;;;;;-142.75;100.00;76255.34;5093026;28;19918;-66
2022/08/18 00:25:18;;;;;;;;;;;;;;;-142.75;100.00;76255.34;5094031;28;19919;-66
2022/08/18 00:27:43;;;;;;;;;;;;;;;-142.75;100.00;76269.13;5093386;28;20010;-67
2022/08/18 00:30:10;;;;;;;;;;;;;;;-142.75;100.00;76263.22;5092720;28;20053;-66
2022/08/18 00:32:40;;;;;;;;;;;;;;;-142.75;100.00;76261.25;5093564;28;19935;-66
2022/08/18 00:35:05;;;;;;;;;;;;;;;-142.75;100.00;76263.22;5093786;28;19913;-67
2022/08/18 00:37:30;;;;;;;;;;;;;;;-142.75;100.00;76263.22;5093383;28;20297;-67
2022/08/18 00:39:55;;;;;;;;;;;;;;;-142.75;100.00;76269.13;5094081;28;19919;-67
2022/08/18 00:42:27;;;;;;;;;;;;;;;-142.75;100.00;76290.78;5094180;28;19912;-67
2022/08/18 00:44:54;;;;;;;;;;;;;;;-142.75;100.00;76277.00;5093932;28;19966;-66
2022/08/18 00:47:19;;;;;;;;;;;;;;;-142.75;100.00;76275.03;5093594;28;19912;-66
2022/08/18 00:49:45;;;;;;;;;;;;;;;-142.75;100.00;76284.88;5093769;28;19912;-66
2022/08/18 00:52:11;;;;;;;;;;;;;;;-142.75;100.00;76286.84;5093829;28;20392;-66
2022/08/18 00:54:39;;;;;;;;;;;;;;;-142.75;100.00;76280.94;5093754;28;19912;-66
2022/08/18 00:57:05;;;;;;;;;;;;;;;-142.75;100.00;76290.78;5093422;28;20002;-66
2022/08/18 00:59:30;;;;;;;;;;;;;;;-142.75;100.00;76298.66;5093828;28;19923;-66
2022/08/18 01:02:01;;;;;;;;;;;;;;;-142.75;100.00;76286.84;5093546;28;19912;-67
2022/08/18 01:04:42;;;;;;;;;;;;;;;-142.75;100.00;76298.66;5093647;28;20530;-66
2022/08/18 01:07:14;;;;;;;;;;;;;;;-142.75;100.00;76298.66;5093643;28;20300;-66
2022/08/18 01:09:39;;;;;;;;;;;;;;;-142.75;100.00;76294.72;5091982;28;20278;-66
2022/08/18 01:12:04;;;;;;;;;;;;;;;-142.75;100.00;76312.44;5093594;28;19919;-66
2022/08/18 01:14:30;;;;;;;;;;;;;;;-142.75;100.00;76320.31;5093887;28;20373;-67
2022/08/18 01:22:34;;;;;;;;;;;;;;;-142.75;100.00;76298.66;5095700;28;19957;-67
2022/08/18 01:27:44;;;;;;;;;;;;;;;-142.75;100.00;76298.66;5098200;28;19961;-67
2022/08/18 01:30:11;;;;;;;;;;;;;;;-142.75;100.00;76294.72;5098399;28;19912;-67
2022/08/18 01:32:37;;;;;;;;;;;;;;;-142.75;100.00;76294.72;5098291;28;19919;-67
2022/08/18 01:35:03;;;;;;;;;;;;;;;-142.75;100.00;76306.53;5098195;28;19962;-67
2022/08/18 01:37:28;;;;;;;;;;;;;;;-142.75;100.00;76310.47;5096313;28;19916;-67
2022/08/18 01:39:54;;;;;;;;;;;;;;;-142.75;100.00;76306.53;5097695;28;19957;-67
2022/08/18 01:42:19;;;;;;;;;;;;;;;-142.75;100.00;76294.72;5098169;28;19964;-67
2022/08/18 01:44:46;;;;;;;;;;;;;;;-142.75;100.00;76308.50;5096358;28;20384;-67
2022/08/18 01:47:12;;;;;;;;;;;;;;;-142.75;100.00;76306.53;5097429;28;19919;-67
2022/08/18 01:49:39;;;;;;;;;;;;;;;-142.75;100.00;76318.34;5097821;28;19912;-67
2022/08/18 01:52:06;;;;;;;;;;;;;;;-142.75;100.00;76328.19;5097520;28;19912;-67
2022/08/18 01:54:31;;;;;;;;;;;;;;;-142.75;100.00;76332.13;5098001;28;19918;-67
2022/08/18 01:56:56;;;;;;;;;;;;;;;-142.75;100.00;76340.00;5097177;28;19998;-67
2022/08/18 01:59:22;;;;;;;;;;;;;;;-142.75;100.00;76324.25;5097707;28;19912;-67
2022/08/18 02:01:47;;;;;;;;;;;;;;;-142.75;100.00;76347.84;5097478;28;19912;-67
2022/08/18 02:04:14;;;;;;;;;;;;;;;-142.75;100.00;76353.78;5097549;28;19958;-66
2022/08/18 02:06:40;;;;;;;;;;;;;;;-142.75;100.00;76367.53;5096061;28;20342;-66
2022/08/18 02:09:05;;;;;;;;;;;;;;;-142.75;100.00;76377.38;5097403;28;19916;-67
2022/08/18 02:11:30;;;;;;;;;;;;;;;-142.75;100.00;76381.31;5097178;28;20428;-67
2022/08/18 02:13:55;;;;;;;;;;;;;;;-142.75;100.00;76389.19;5097101;28;20293;-66
2022/08/18 02:16:20;;;;;;;;;;;;;;;-142.75;100.00;76377.38;5096998;28;19962;-67
2022/08/18 02:18:46;;;;;;;;;;;;;;;-142.75;100.00;76365.56;5095067;28;19920;-67
2022/08/18 02:21:16;;;;;;;;;;;;;;;-142.75;100.00;76353.78;5095764;28;19919;-67
2022/08/18 02:23:42;;;;;;;;;;;;;;;-142.75;100.00;76351.81;5095212;28;19912;-67
2022/08/18 02:26:08;;;;;;;;;;;;;;;-142.75;100.00;76355.72;5079172;28;19917;-68
2022/08/18 02:28:34;;;;;;;;;;;;;;;-142.75;100.00;76367.53;5076011;28;19916;-67
2022/08/18 02:31:10;;;;;;;;;;;;;;;-142.75;100.00;76361.63;5075839;28;20477;-66
2022/08/18 02:33:35;;;;;;;;;;;;;;;-142.75;100.00;76359.66;5075140;28;19917;-67
2022/08/18 02:36:01;;;;;;;;;;;;;;;-142.75;100.00;76361.63;5075931;28;20427;-67
2022/08/18 02:38:26;;;;;;;;;;;;;;;-142.75;100.00;76359.66;5076187;28;19917;-67
2022/08/18 02:40:55;;;;;;;;;;;;;;;-142.75;100.00;76355.72;5076032;28;20298;-67
2022/08/18 02:43:21;;;;;;;;;;;;;;;-142.75;100.00;76359.66;5075969;28;19916;-67
2022/08/18 02:45:46;;;;;;;;;;;;;;;-142.75;100.00;76361.63;5075514;28;19916;-67
2022/08/18 02:48:12;;;;;;;;;;;;;;;-142.75;100.00;76365.56;5075337;28;20003;-67
2022/08/18 02:50:47;;;;;;;;;;;;;;;-142.75;100.00;76383.28;5075858;28;20324;-66
2022/08/18 02:53:22;;;;;;;;;;;;;;;-142.75;100.00;76399.03;5075548;28;19920;-67
2022/08/18 02:55:48;;;;;;;;;;;;;;;-142.75;100.00;76404.94;5075834;28;20313;-67
2022/08/18 02:58:14;;;;;;;;;;;;;;;-142.75;100.00;76410.84;5074252;28;19924;-66
2022/08/18 03:00:39;;;;;;;;;;;;;;;-142.75;100.00;76410.84;5074237;28;19912;-67
2022/08/18 03:03:04;;;;;;;;;;;;;;;-142.75;100.00;76418.72;5073901;28;19963;-67
2022/08/18 03:05:29;;;;;;;;;;;;;;;-142.75;100.00;76428.56;5074689;28;19970;-67
2022/08/18 03:07:55;;;;;;;;;;;;;;;-142.75;100.00;76432.50;5075665;28;20361;-67
2022/08/18 03:10:20;;;;;;;;;;;;;;;-142.75;100.00;76436.44;5075865;28;19912;-67
2022/08/18 03:12:45;;;;;;;;;;;;;;;-142.75;100.00;76452.19;5075540;28;19919;-67
2022/08/18 03:15:11;;;;;;;;;;;;;;;-142.75;100.00;76458.09;5075208;28;19913;-67
2022/08/18 03:17:37;;;;;;;;;;;;;;;-142.75;100.00;76473.84;5074727;28;19963;-67
2022/08/18 03:20:02;;;;;;;;;;;;;;;-142.75;100.00;76491.56;5074930;28;19917;-67
2022/08/18 03:22:28;;;;;;;;;;;;;;;-142.75;100.00;76495.50;5075339;28;19948;-67
2022/08/18 03:24:53;;;;;;;;;;;;;;;-142.75;100.00;76501.41;5075291;28;20009;-67
2022/08/18 03:27:18;;;;;;;;;;;;;;;-142.75;100.00;76515.19;5074933;28;19912;-67
2022/08/18 03:29:43;;;;;;;;;;;;;;;-142.75;100.00;76528.97;5074554;28;20003;-66
2022/08/18 03:32:09;;;;;;;;;;;;;;;-142.75;100.00;76530.91;5073538;28;19912;-66
2022/08/18 03:34:34;;;;;;;;;;;;;;;-142.75;100.00;76519.13;5074856;28;20532;-66
2022/08/18 03:37:00;;;;;;;;;;;;;;;-142.75;100.00;76517.16;5073089;28;20366;-66
2022/08/18 03:39:26;;;;;;;;;;;;;;;-142.75;100.00;76509.28;5074418;28;19912;-66
2022/08/18 03:41:56;;;;;;;;;;;;;;;-142.75;100.00;76495.50;5074701;28;19913;-67
2022/08/18 03:44:22;;;;;;;;;;;;;;;-142.75;100.00;76493.53;5074816;28;19958;-67
2022/08/18 03:46:48;;;;;;;;;;;;;;;-142.75;100.00;76485.66;5074100;28;19917;-66
2022/08/18 03:49:14;;;;;;;;;;;;;;;-142.75;100.00;76467.94;5073073;28;19923;-66
2022/08/18 03:51:42;;;;;;;;;;;;;;;-142.75;100.00;76465.97;5074496;28;20003;-66
2022/08/18 03:54:08;;;;;;;;;;;;;;;-142.75;100.00;76460.06;5074802;28;20011;-67
2022/08/18 03:56:35;;;;;;;;;;;;;;;-142.75;100.00;76450.22;5074283;28;19916;-67
2022/08/18 03:59:02;;;;;;;;;;;;;;;-142.75;100.00;76464.00;5073966;28;19955;-66
2022/08/18 04:01:29;;;;;;;;;;;;;;;-142.75;100.00;76465.97;5074603;28;19959;-67
2022/08/18 04:03:56;;;;;;;;;;;;;;;-142.75;100.00;76465.97;5074176;28;20011;-66
2022/08/18 04:06:29;;;;;;;;;;;;;;;-142.75;100.00;76471.88;5074274;28;20269;-66
2022/08/18 04:08:56;;;;;;;;;;;;;;;-142.75;100.00;76467.94;5073997;28;19922;-66
2022/08/18 04:11:22;;;;;;;;;;;;;;;-142.75;100.00;76465.97;5074944;28;20000;-67
2022/08/18 04:13:47;;;;;;;;;;;;;;;-142.75;100.00;76462.03;5074201;28;19952;-67
2022/08/18 04:16:12;;;;;;;;;;;;;;;-142.75;100.00;76456.13;5074200;28;19924;-67
2022/08/18 04:18:38;;;;;;;;;;;;;;;-142.75;100.00;76440.38;5073687;28;19927;-67
2022/08/18 04:21:06;;;;;;;;;;;;;;;-142.75;100.00;76462.03;5074431;28;20133;-66
2022/08/18 04:23:32;;;;;;;;;;;;;;;-142.75;100.00;76444.31;5074095;28;19920;-66
2022/08/18 04:25:58;;;;;;;;;;;;;;;-142.75;100.00;76420.69;5072829;28;20317;-67
2022/08/18 04:28:24;;;;;;;;;;;;;;;-142.75;100.00;76432.50;5073647;28;19939;-66
2022/08/18 04:30:49;;;;;;;;;;;;;;;-142.75;100.00;76428.56;5073662;28;20374;-67
2022/08/18 04:33:14;;;;;;;;;;;;;;;-142.75;100.00;76424.63;5073719;28;19965;-67
2022/08/18 04:35:39;;;;;;;;;;;;;;;-142.75;100.00;76426.59;5073803;28;19956;-67
2022/08/18 04:38:06;;;;;;;;;;;;;;;-142.75;100.00;76428.56;5072980;28;19963;-67
2022/08/18 04:40:32;;;;;;;;;;;;;;;-142.75;100.00;76432.50;5073904;28;19999;-66
2022/08/18 04:42:57;;;;;;;;;;;;;;;-142.75;100.00;76430.53;5073578;28;20355;-66
2022/08/18 04:45:23;;;;;;;;;;;;;;;-142.75;100.00;76428.56;5073596;28;19917;-67
2022/08/18 04:47:48;;;;;;;;;;;;;;;-142.75;100.00;76416.75;5073117;28;19951;-66
2022/08/18 04:50:13;;;;;;;;;;;;;;;-142.75;100.00;76424.63;5073578;28;19919;-67
2022/08/18 04:55:22;;;;;;;;;;;;;;;-142.75;100.00;76428.56;5073563;28;20427;-67
2022/08/18 04:57:47;;;;;;;;;;;;;;;-142.75;100.00;76432.50;5074943;28;19917;-66
2022/08/18 05:00:13;;;;;;;;;;;;;;;-142.75;100.00;76440.38;5077565;28;19916;-67
2022/08/18 05:02:38;;;;;;;;;;;;;;;-142.75;100.00;76424.63;5077499;28;20531;-67
2022/08/18 05:05:04;;;;;;;;;;;;;;;-142.75;100.00;76416.75;5077474;28;20002;-67
2022/08/18 05:07:29;;;;;;;;;;;;;;;-142.75;100.00;76432.50;5075857;28;20410;-67
2022/08/18 05:09:55;;;;;;;;;;;;;;;-142.75;100.00;76416.75;5077732;28;19912;-67
2022/08/18 05:12:20;;;;;;;;;;;;;;;-142.75;100.00;76397.06;5077484;28;20011;-67
2022/08/18 05:14:46;;;;;;;;;;;;;;;-142.75;100.00;76377.38;5077776;28;19955;-66
2022/08/18 05:17:13;;;;;;;;;;;;;;;-142.75;100.00;76365.56;5076718;28;19942;-67
2022/08/18 05:19:38;;;;;;;;;;;;;;;-142.75;100.00;76373.44;5077518;28;19917;-67
2022/08/18 05:22:06;;;;;;;;;;;;;;;-142.75;100.00;76369.50;5077570;28;19916;-67
2022/08/18 05:24:34;;;;;;;;;;;;;;;-142.75;100.00;76357.69;5077073;28;19913;-67
2022/08/18 05:26:59;;;;;;;;;;;;;;;-142.75;100.00;76357.69;5076759;28;19920;-66
2022/08/18 05:29:25;;;;;;;;;;;;;;;-142.75;100.00;76338.03;5077294;28;19912;-67
2022/08/18 05:31:50;;;;;;;;;;;;;;;-142.75;100.00;76318.34;5076922;28;20285;-67
2022/08/18 05:34:16;;;;;;;;;;;;;;;-142.75;100.00;76304.56;5075512;28;19912;-66
2022/08/18 05:36:47;;;;;;;;;;;;;;;-142.75;100.00;76294.72;5075118;28;19913;-67
2022/08/18 05:39:25;;;;;;;;;;;;;;;-142.75;100.00;76288.81;5075986;28;19916;-66
2022/08/18 05:41:51;;;;;;;;;;;;;;;-142.75;100.00;76269.13;5076532;28;20344;-66
2022/08/18 05:44:43;;;;;;;;;;;;;;;-142.75;100.00;76261.25;5076144;28;19966;-66
2022/08/18 05:47:12;;;;;;;;;;;;;;;-142.75;100.00;76241.56;5070325;28;19913;-66
2022/08/18 05:49:38;;;;;;;;;;;;;;;-142.75;100.00;76223.84;5075796;28;19952;-66
2022/08/18 05:52:22;;;;;;;;;;;;;;;-142.75;100.00;76198.28;5075745;28;19962;-67
2022/08/18 05:57:39;;;;;;;;;;;;;;;-142.75;100.00;76156.94;5074727;28;20534;-66
2022/08/18 06:00:05;;;;;;;;;;;;;;;-142.75;100.00;76129.38;5075687;28;20013;-67
2022/08/18 06:02:37;;;;;;;;;;;;;;;-142.75;100.00;76125.44;5075482;28;20399;-66
2022/08/18 06:05:07;;;;;;;;;;;;;;;-142.75;100.00;76097.88;5075878;28;19950;-67
2022/08/18 06:07:43;;;;;;;;;;;;;;;-142.75;100.00;76072.31;5075162;28;19947;-66
2022/08/18 06:10:10;;;;;;;;;;;;;;;-142.75;100.00;76062.47;5075144;28;20454;-66
2022/08/18 06:12:37;;;;;;;;;;;;;;;-142.75;100.00;76030.97;5075176;28;19913;-66
2022/08/18 06:15:37;;;;;;;;;;;;;;;-142.75;100.00;76023.09;5075208;28;20382;-66
2022/08/18 06:18:19;;;;;;;;;;;;;;;-142.75;100.00;75997.50;5074402;28;19924;-67
2022/08/18 06:23:38;;;;;;;;;;;;;;;-142.75;100.00;75956.19;5031563;28;19925;-68
2022/08/18 06:26:03;;;;;;;;;;;;;;;-142.75;100.00;75956.19;5033445;28;20381;-68
2022/08/18 06:28:35;;;;;;;;;;;;;;;-142.75;100.00;75934.53;5016160;28;20002;-67
2022/08/18 06:31:19;;;;;;;;;;;;;;;-142.75;100.00;75906.97;5034029;28;19927;-65
2022/08/18 06:34:11;;;;;;;;;;;;;;;-142.75;100.00;75879.41;5032725;28;19914;-67
2022/08/18 06:36:36;;;;;;;;;;;;;;;-142.75;100.00;75869.56;5028303;28;19917;-67
2022/08/18 06:39:10;;;;;;;;;;;;;;;-142.75;100.00;75855.81;5033835;28;19970;-67
2022/08/18 06:41:36;;;;;;;;;;;;;;;-142.75;100.00;75845.97;5029095;28;19967;-68
2022/08/18 06:44:03;;;;;;;;;;;;;;;-142.75;100.00;75836.13;5030245;28;20016;-67
2022/08/18 06:46:34;;;;;;;;;;;;;;;-142.75;100.00;75853.84;5020216;28;19959;-68
2022/08/18 06:49:02;;;;;;;;;;;;;;;-142.75;100.00;75808.56;5018882;28;19917;-66
2022/08/18 06:51:28;;;;;;;;;;;;;;;-142.75;100.00;75796.75;5021768;28;19971;-68
2022/08/18 06:53:56;;;;;;;;;;;;;;;-142.75;100.00;75810.53;5024007;28;19989;-66
2022/08/18 06:56:21;;;;;;;;;;;;;;;-142.75;100.00;75782.97;5019803;28;20060;-67
2022/08/18 06:58:46;;;;;;;;;;;;;;;-142.75;100.00;75755.44;5025347;28;20043;-68
2022/08/18 07:01:11;;;;;;;;;;;;;;;-142.75;100.00;75761.34;5025466;28;19982;-68
2022/08/18 07:03:41;;;;;;;;;;;;;;;-142.75;100.00;75759.38;5028909;28;19953;-68
2022/08/18 07:06:07;;;;;;;;;;;;;;;-142.75;100.00;75753.47;5028653;28;20382;-67
2022/08/18 07:08:35;;;;;;;;;;;;;;;-142.75;100.00;75751.50;5025732;28;19913;-68
2022/08/18 07:11:19;;;;;;;;;;;;;;;-142.75;100.00;75718.03;5029767;28;20006;-68
2022/08/18 07:13:46;;;;;;;;;;;;;;;-142.75;100.00;75706.22;5022186;28;19917;-69
2022/08/18 07:16:31;;;;;;;;;;;;;;;-142.75;100.00;75721.97;5023971;28;19917;-68
2022/08/18 07:19:10;;;;;;;;;;;;;;;-142.75;100.00;75708.19;5025989;28;19917;-68
2022/08/18 07:21:36;;;;;;;;;;;;;;;-142.75;100.00;75700.31;5028223;28;19924;-68
2022/08/18 07:24:07;;;;;;;;;;;;;;;-142.75;100.00;75706.22;5024649;28;20003;-68
2022/08/18 07:26:51;;;;;;;;;;;;;;;-142.75;100.00;75688.50;5027742;28;19960;-67
2022/08/18 07:29:16;;;;;;;;;;;;;;;-142.75;100.00;75668.84;5027357;28;19913;-68
2022/08/18 07:31:47;;;;;;;;;;;;;;;-142.75;100.00;75708.19;5025942;28;20387;-68
2022/08/18 07:34:16;;;;;;;;;;;;;;;-142.75;100.00;75672.78;5031076;28;19917;-68
2022/08/18 07:36:46;;;;;;;;;;;;;;;-142.75;100.00;75655.06;5027089;28;19953;-68
2022/08/18 07:39:19;;;;;;;;;;;;;;;-142.75;100.00;75645.22;5030779;28;19917;-67
2022/08/18 07:42:11;;;;;;;;;;;;;;;-142.75;100.00;75635.38;5022543;28;19914;-68
2022/08/18 07:44:36;;;;;;;;;;;;;;;-142.75;100.00;75617.66;5029872;28;19914;-68
2022/08/18 07:47:05;;;;;;;;;;;;;;;-142.75;100.00;75597.97;5024029;28;19925;-66
2022/08/18 07:49:32;;;;;;;;;;;;;;;-142.75;100.00;75586.19;5030205;28;19959;-67
2022/08/18 07:52:26;;;;;;;;;;;;;;;-142.75;100.00;75556.66;5031992;28;19917;-68
2022/08/18 07:55:10;;;;;;;;;;;;;;;-142.75;100.00;75546.81;5022686;28;19917;-69
2022/08/18 07:57:59;;;;;;;;;;;;;;;-142.75;100.00;75521.22;5031117;28;19929;-69
2022/08/18 08:00:30;;;;;;;;;;;;;;;-142.75;100.00;75533.03;5023387;28;19921;-69
2022/08/18 08:03:04;;;;;;;;;;;;;;;-142.75;100.00;75542.88;5031688;28;19913;-69
2022/08/18 08:05:48;;;;;;;;;;;;;;;-142.75;100.00;75531.06;5032216;28;19944;-68
2022/08/18 08:08:16;;;;;;;;;;;;;;;-142.75;100.00;75513.38;5030753;28;20012;-68
2022/08/18 08:10:54;;;;;;;;;;;;;;;-142.75;100.00;75489.75;5031305;28;19913;-69
2022/08/18 08:13:34;;;;;;;;;;;;;;;-142.75;100.00;75464.16;5032014;28;20371;-69
2022/08/18 08:16:02;;;;;;;;;;;;;;;-142.75;100.00;75477.94;5031374;28;19913;-70
2022/08/18 08:18:27;;;;;;;;;;;;;;;-142.75;100.00;75436.59;5032278;28;19921;-69
2022/08/18 08:20:54;;;;;;;;;;;;;;;-142.75;100.00;75448.41;5032436;28;19920;-68
2022/08/18 08:23:32;;;;;;;;;;;;;;;-142.75;100.00;75434.66;5032436;28;20401;-69
2022/08/18 08:26:12;;;;;;;;;;;;;;;-142.75;100.00;75416.94;5032132;28;19971;-69
2022/08/18 08:28:56;;;;;;;;;;;;;;;-142.75;100.00;75383.47;5032153;28;20386;-69
2022/08/18 08:31:23;;;;;;;;;;;;;;;-142.75;100.00;75375.59;5031437;28;19917;-69
2022/08/18 08:33:50;;;;;;;;;;;;;;;-142.75;100.00;75338.22;5030776;28;19913;-69
2022/08/18 08:36:24;;;;;;;;;;;;;;;-142.75;100.00;75292.97;5030980;28;19935;-71
2022/08/18 08:39:08;;;;;;;;;;;;;;;-142.75;100.00;75300.81;5031914;28;20290;-69
2022/08/18 08:41:59;;;;;;;;;;;;;;;-142.75;100.00;75324.44;5032192;28;19914;-69
2022/08/18 08:44:31;;;;;;;;;;;;;;;-142.75;100.00;75338.22;5029125;28;20383;-69
2022/08/18 08:47:16;;;;;;;;;;;;;;;-142.75;100.00;75324.44;5031829;28;19959;-69
2022/08/18 08:49:45;;;;;;;;;;;;;;;-142.75;100.00;75296.88;5001334;28;19959;-69
2022/08/18 08:52:23;;;;;;;;;;;;;;;-142.75;100.00;75322.47;5030743;28;19969;-69
2022/08/18 08:54:52;;;;;;;;;;;;;;;-142.75;100.00;75312.63;5032193;28;19913;-69
2022/08/18 08:57:18;;;;;;;;;;;;;;;-142.75;100.00;75302.78;5031664;28;20000;-69
2022/08/18 08:59:45;;;;;;;;;;;;;;;-142.75;100.00;75275.25;5031631;28;19913;-69
2022/08/18 09:02:13;;;;;;;;;;;;;;;-142.75;100.00;75271.31;5031527;28;19921;-69
2022/08/18 09:04:57;;;;;;;;;;;;;;;-142.75;100.00;75330.34;5030287;28;19912;-69
2022/08/18 09:07:35;;;;;;;;;;;;;;;-142.75;100.00;75379.53;5029497;28;19913;-69
2022/08/18 09:10:06;;;;;;;;;;;;;;;-142.75;100.00;75411.03;5029410;28;19917;-69
2022/08/18 09:12:40;;;;;;;;;;;;;;;-142.75;100.00;75468.09;5031416;28;19957;-69
2022/08/18 09:15:05;;;;;;;;;;;;;;;-142.75;100.00;75513.38;5031441;28;19913;-68
2022/08/18 09:17:39;;;;;;;;;;;;;;;-142.75;100.00;75513.38;5031042;28;19928;-68
2022/08/18 09:20:07;;;;;;;;;;;;;;;-142.75;100.00;75527.13;5029906;28;20470;-67
2022/08/18 09:22:35;;;;;;;;;;;;;;;-142.75;100.00;75424.81;5031163;28;19917;-68
2022/08/18 09:25:01;;;;;;;;;;;;;;;-142.75;100.00;75361.84;5031335;28;19923;-69
2022/08/18 09:27:29;;;;;;;;;;;;;;;-142.75;100.00;75334.28;5030581;28;20007;-70
2022/08/18 09:29:56;;;;;;;;;;;;;;;-142.75;100.00;75294.94;5025987;28;19917;-67
2022/08/18 09:32:21;;;;;;;;;;;;;;;-142.75;100.00;75253.59;5030881;28;19917;-70
2022/08/18 09:35:05;;;;;;;;;;;;;;;-142.75;100.00;75294.94;5030901;28;20492;-69
2022/08/18 09:37:33;;;;;;;;;;;;;;;-142.75;100.00;75326.41;5029748;28;19925;-68
2022/08/18 09:43:05;;;;;;;;;;;;;;;-142.75;100.00;75389.38;5030813;28;20006;-68
2022/08/18 09:45:30;;;;;;;;;;;;;;;-142.75;100.00;75411.03;5034713;28;20401;-69
2022/08/18 09:47:57;;;;;;;;;;;;;;;-142.75;100.00;75436.59;5032805;28;19917;-69
2022/08/18 09:50:26;;;;;;;;;;;;;;;-142.75;100.00;75448.41;5034606;28;19913;-68
2022/08/18 09:52:52;;;;;;;;;;;;;;;-142.75;100.00;75468.09;5034517;28;19968;-69
2022/08/18 09:55:17;;;;;;;;;;;;;;;-142.75;100.00;75487.78;5033379;28;19948;-68
2022/08/18 09:57:44;;;;;;;;;;;;;;;-142.75;100.00;75468.09;5033887;28;20011;-67
2022/08/18 10:00:12;;;;;;;;;;;;;;;-142.75;100.00;75399.22;5034593;28;19913;-69
2022/08/18 10:02:40;;;;;;;;;;;;;;;-142.75;100.00;75285.09;5032078;28;19913;-70
2022/08/18 10:05:08;;;;;;;;;;;;;;;-142.75;100.00;75224.09;5032763;28;19913;-68
2022/08/18 10:07:38;;;;;;;;;;;;;;;-142.75;100.00;75172.91;5032466;28;19956;-69
2022/08/18 10:10:04;;;;;;;;;;;;;;;-142.75;100.00;75106.00;5033901;28;19913;-69
2022/08/18 10:12:51;;;;;;;;;;;;;;;-142.75;100.00;75082.41;5034241;28;19917;-70
2022/08/18 10:15:22;;;;;;;;;;;;;;;-142.75;100.00;75090.28;5034428;28;19913;-69
2022/08/18 10:17:47;;;;;;;;;;;;;;;-142.75;100.00;75141.44;5034208;28;20312;-68
2022/08/18 10:20:22;;;;;;;;;;;;;;;-142.75;100.00;75125.69;5034759;28;19913;-69
2022/08/18 10:22:49;;;;;;;;;;;;;;;-142.75;100.00;75147.34;5034156;28;19925;-69
2022/08/18 10:25:29;;;;;;;;;;;;;;;-142.75;100.00;75135.53;5034329;28;19959;-68
2022/08/18 10:27:55;;;;;;;;;;;;;;;-142.75;100.00;75228.00;5033298;28;20003;-67
2022/08/18 10:30:26;;;;;;;;;;;;;;;-142.75;100.00;75255.56;5031563;28;19917;-69
2022/08/18 10:32:51;;;;;;;;;;;;;;;-142.75;100.00;75275.25;5033276;28;19917;-69
2022/08/18 10:35:35;;;;;;;;;;;;;;;-142.75;100.00;75326.41;5034451;28;20501;-69
2022/08/18 10:38:16;;;;;;;;;;;;;;;-142.75;100.00;75243.75;5034086;28;19917;-69
2022/08/18 10:40:42;;;;;;;;;;;;;;;-142.75;100.00;75127.66;5034490;28;19931;-68
2022/08/18 10:43:18;;;;;;;;;;;;;;;-142.75;100.00;75066.66;5034394;28;19913;-68
2022/08/18 10:45:45;;;;;;;;;;;;;;;-142.75;100.00;75043.03;5034280;28;19913;-69
2022/08/18 10:48:21;;;;;;;;;;;;;;;-142.75;100.00;74991.88;5033667;28;19916;-68
2022/08/18 10:50:51;;;;;;;;;;;;;;;-142.75;100.00;75029.28;5025532;28;19917;-69
2022/08/18 10:53:21;;;;;;;;;;;;;;;-142.75;100.00;75058.78;5031999;28;19972;-69
2022/08/18 10:55:52;;;;;;;;;;;;;;;-142.75;100.00;75086.34;5030462;28;19913;-69
2022/08/18 10:58:32;;;;;;;;;;;;;;;-142.75;100.00;75165.03;5033127;28;20000;-70
2022/08/18 11:01:16;;;;;;;;;;;;;;;-142.75;100.00;75188.66;5033328;28;19927;-70
2022/08/18 11:04:00;;;;;;;;;;;;;;;-142.75;100.00;75212.28;5028078;28;20314;-70
2022/08/18 11:06:25;;;;;;;;;;;;;;;-142.75;100.00;75172.91;5033713;28;19917;-68
2022/08/18 11:08:53;;;;;;;;;;;;;;;-142.75;100.00;75137.50;5033483;28;19977;-70
2022/08/18 11:11:21;;;;;;;;;;;;;;;-142.75;100.00;75025.34;5031584;28;19917;-69
2022/08/18 11:14:05;;;;;;;;;;;;;;;-142.75;100.00;75007.63;5033151;28;19968;-68
2022/08/18 11:16:33;;;;;;;;;;;;;;;-142.75;100.00;74944.66;5030884;28;19917;-69
2022/08/18 11:19:14;;;;;;;;;;;;;;;-142.75;100.00;74895.47;5032634;28;19921;-69
2022/08/18 11:21:42;;;;;;;;;;;;;;;-142.75;99.83;74911.22;5030266;28;19917;-68
2022/08/18 11:24:09;;;;;;;;;;;;;;;-142.75;98.96;74889.56;5033208;28;19913;-69
2022/08/18 11:26:36;;;;;;;;;;;;;;;-142.75;97.19;74864.00;5033061;28;19956;-68
2022/08/18 11:29:17;;;;;;;;;;;;;;;-142.75;83.82;74854.16;5031205;28;19917;-70
2022/08/18 11:31:42;;;;;;;;;;;;;;;-142.75;93.05;74850.22;5030484;28;20322;-69
2022/08/18 11:34:13;;;;;;;;;;;;;;;-142.75;94.46;74830.53;5021384;28;19913;-69
2022/08/18 11:36:39;;;;;;;;;;;;;;;-142.75;96.00;74822.66;5032875;28;19975;-71
2022/08/18 11:39:08;;;;;;;;;;;;;;;-142.75;100.00;74881.69;5032179;28;19925;-69
2022/08/18 11:41:33;;;;;;;;;;;;;;;-142.75;98.91;74966.31;5032689;28;19914;-69
2022/08/18 11:43:58;;;;;;;;;;;;;;;-142.75;100.00;75023.38;5032772;28;19967;-69
2022/08/18 11:46:34;;;;;;;;;;;;;;;-142.75;100.00;74991.88;5032655;28;20023;-68
2022/08/18 11:49:12;;;;;;;;;;;;;;;-142.75;94.39;74948.59;5033083;28;19913;-70
2022/08/18 11:51:51;;;;;;;;;;;;;;;-142.75;93.04;74873.81;5031200;28;19913;-69
2022/08/18 11:54:20;;;;;;;;;;;;;;;-142.75;86.23;74885.63;5031184;28;19920;-69
2022/08/18 11:56:46;;;;;;;;;;;;;;;-142.75;87.39;74826.59;5032229;28;20382;-70
2022/08/18 11:59:31;;;;;;;;;;;;;;;-142.75;87.49;74901.38;5032922;28;19924;-69
2022/08/18 12:01:58;;;;;;;;;;;;;;;-142.75;83.27;74883.66;5032839;28;19917;-69
2022/08/18 12:04:26;;;;;;;;;;;;;;;-142.75;85.41;74867.91;5031647;28;20392;-69
2022/08/18 12:06:54;;;;;;;;;;;;;;;-142.75;88.61;74773.47;5032256;28;19913;-69
2022/08/18 12:09:21;;;;;;;;;;;;;;;-142.75;89.39;74834.47;5032380;28;19917;-69
2022/08/18 12:11:50;;;;;;;;;;;;;;;-142.75;90.08;74889.56;5032574;28;19913;-70
2022/08/18 12:14:18;;;;;;;;;;;;;;;-142.75;91.94;74797.09;5031164;28;19917;-69
2022/08/18 12:16:43;;;;;;;;;;;;;;;-142.75;84.01;74747.91;5032377;28;19913;-71
2022/08/18 12:19:10;;;;;;;;;;;;;;;-142.75;82.76;74759.72;5032658;28;19972;-70
2022/08/18 12:21:49;;;;;;;;;;;;;;;-142.75;83.12;74749.88;5057925;22;19917;-65
2022/08/18 12:24:21;;;;;;;;;;;;;;;-142.75;81.11;74732.16;5010640;28;19925;-65
2022/08/18 12:26:46;;;;;;;;;;;;;;;-142.75;85.32;74818.72;5025866;28;20008;-65
2022/08/18 12:29:11;;;;;;;;;;;;;;;-142.75;82.60;74816.75;5032769;28;19940;-65
2022/08/18 12:31:37;;;;;;;;;;;;;;;-142.75;83.40;74779.38;5032676;28;19967;-65
2022/08/18 12:34:03;;;;;;;;;;;;;;;-142.75;85.34;74785.28;5032500;28;19924;-65
2022/08/18 12:36:28;;;;;;;;;;;;;;;-142.75;88.33;74828.56;5032671;28;19917;-67
2022/08/18 12:38:54;;;;;;;;;;;;;;;-142.75;91.09;74867.91;5032399;28;19971;-68
2022/08/18 12:41:19;;;;;;;;;;;;;;;-142.75;93.85;74948.59;5032757;28;19936;-68
2022/08/18 12:43:46;;;;;;;;;;;;;;;-142.75;97.39;74972.22;5032659;28;20011;-68
2022/08/18 12:46:11;;;;;;;;;;;;;;;-142.75;100.00;74985.97;5032455;28;20408;-68
2022/08/18 12:48:37;;;;;;;;;;;;;;;-142.75;100.00;75048.94;5032415;28;19948;-68